sensor_id;sensor_type;location;lat;lon;timestamp;pressure;altitude;pressure_sealevel;temperature;humidity
19777;BME280;10047;42.490;26.012;2024-02-28T00:00:00;144484.78;;;5.11;100.00
19777;BME280;10047;42.490;26.012;2024-02-28T00:02:25;144519.44;;;5.20;100.00
19777;BME280;10047;42.490;26.012;2024-02-28T00:04:50;144566.81;;;5.52;100.00
19777;BME280;10047;42.490;26.012;2024-02-28T00:07:16;144510.19;;;5.34;100.00
19777;BME280;10047;42.490;26.012;2024-02-28T00:09:42;144546.22;;;5.43;100.00
19777;BME280;10047;42.490;26.012;2024-02-28T00:12:08;144621.47;;;5.87;100.00
19777;BME280;10047;42.490;26.012;2024-02-28T00:14:33;144634.44;;;6.07;100.00
19777;BME280;10047;42.490;26.012;2024-02-28T00:16:59;144609.91;;;5.66;100.00
19777;BME280;10047;42.490;26.012;2024-02-28T00:19:24;144557.41;;;5.78;100.00
19777;BME280;10047;42.490;26.012;2024-02-28T00:21:50;144546.16;;;5.65;100.00
19777;BME280;10047;42.490;26.012;2024-02-28T00:24:16;144570.06;;;6.01;100.00
19777;BME280;10047;42.490;26.012;2024-02-28T00:26:42;144527.38;;;6.05;100.00
19777;BME280;10047;42.490;26.012;2024-02-28T00:29:11;144485.91;;;5.45;100.00
19777;BME280;10047;42.490;26.012;2024-02-28T00:31:37;144385.66;;;5.62;100.00
19777;BME280;10047;42.490;26.012;2024-02-28T00:34:02;144484.19;;;5.81;100.00
19777;BME280;10047;42.490;26.012;2024-02-28T00:36:28;144433.75;;;5.76;100.00
19777;BME280;10047;42.490;26.012;2024-02-28T00:38:53;144458.13;;;5.54;100.00
19777;BME280;10047;42.490;26.012;2024-02-28T00:41:18;144226.13;;;5.08;100.00
19777;BME280;10047;42.490;26.012;2024-02-28T00:43:44;144402.72;;;5.79;100.00
19777;BME280;10047;42.490;26.012;2024-02-28T00:46:10;144402.41;;;5.93;100.00
19777;BME280;10047;42.490;26.012;2024-02-28T00:48:40;144248.50;;;5.24;100.00
19777;BME280;10047;42.490;26.012;2024-02-28T00:51:05;144083.75;;;5.04;100.00
19777;BME280;10047;42.490;26.012;2024-02-28T00:53:31;144382.19;;;5.91;100.00
19777;BME280;10047;42.490;26.012;2024-02-28T00:55:57;144181.03;;;5.01;100.00
19777;BME280;10047;42.490;26.012;2024-02-28T00:58:22;144016.22;;;5.04;100.00
19777;BME280;10047;42.490;26.012;2024-02-28T01:00:48;144306.31;;;6.06;100.00
19777;BME280;10047;42.490;26.012;2024-02-28T01:03:14;144192.25;;;5.46;100.00
19777;BME280;10047;42.490;26.012;2024-02-28T01:05:41;144272.59;;;5.99;100.00
19777;BME280;10047;42.490;26.012;2024-02-28T01:08:07;144211.47;;;5.24;100.00
19777;BME280;10047;42.490;26.012;2024-02-28T01:10:33;144267.22;;;5.80;100.00
19777;BME280;10047;42.490;26.012;2024-02-28T01:12:59;144235.28;;;5.70;100.00
19777;BME280;10047;42.490;26.012;2024-02-28T01:15:25;144230.63;;;5.77;100.00
19777;BME280;10047;42.490;26.012;2024-02-28T01:17:50;144222.38;;;5.40;100.00
19777;BME280;10047;42.490;26.012;2024-02-28T01:20:15;144203.75;;;5.77;100.00
19777;BME280;10047;42.490;26.012;2024-02-28T01:22:41;144195.66;;;5.50;100.00
19777;BME280;10047;42.490;26.012;2024-02-28T01:25:06;144130.66;;;6.10;100.00
19777;BME280;10047;42.490;26.012;2024-02-28T01:27:32;144190.75;;;5.69;100.00
19777;BME280;10047;42.490;26.012;2024-02-28T01:29:58;144114.94;;;5.83;100.00
19777;BME280;10047;42.490;26.012;2024-02-28T01:32:23;144023.81;;;5.36;100.00
19777;BME280;10047;42.490;26.012;2024-02-28T01:34:48;143972.75;;;5.05;100.00
19777;BME280;10047;42.490;26.012;2024-02-28T01:37:14;144111.47;;;5.70;100.00
19777;BME280;10047;42.490;26.012;2024-02-28T01:39:40;144072.03;;;5.48;100.00
19777;BME280;10047;42.490;26.012;2024-02-28T01:42:05;143961.50;;;4.61;100.00
19777;BME280;10047;42.490;26.012;2024-02-28T01:44:30;144090.91;;;5.29;100.00
19777;BME280;10047;42.490;26.012;2024-02-28T01:46:56;144003.06;;;5.59;100.00
19777;BME280;10047;42.490;26.012;2024-02-28T01:49:23;144037.00;;;5.94;100.00
19777;BME280;10047;42.490;26.012;2024-02-28T01:51:50;143895.66;;;5.30;100.00
19777;BME280;10047;42.490;26.012;2024-02-28T01:54:18;144019.72;;;6.09;100.00
19777;BME280;10047;42.490;26.012;2024-02-28T01:56:43;143932.59;;;5.51;100.00
19777;BME280;10047;42.490;26.012;2024-02-28T01:59:10;143846.91;;;5.32;100.00
19777;BME280;10047;42.490;26.012;2024-02-28T02:01:37;143867.28;;;5.12;100.00
19777;BME280;10047;42.490;26.012;2024-02-28T02:04:03;143799.47;;;4.93;100.00
19777;BME280;10047;42.490;26.012;2024-02-28T02:06:30;143961.66;;;5.73;100.00
19777;BME280;10047;42.490;26.012;2024-02-28T02:08:55;143934.41;;;5.37;100.00
19777;BME280;10047;42.490;26.012;2024-02-28T02:11:21;143850.84;;;5.61;100.00
19777;BME280;10047;42.490;26.012;2024-02-28T02:13:48;143781.66;;;5.34;100.00
19777;BME280;10047;42.490;26.012;2024-02-28T02:16:14;143953.00;;;5.51;100.00
19777;BME280;10047;42.490;26.012;2024-02-28T02:18:39;143747.69;;;4.99;100.00
19777;BME280;10047;42.490;26.012;2024-02-28T02:21:06;143748.38;;;5.14;100.00
19777;BME280;10047;42.490;26.012;2024-02-28T02:23:37;143906.56;;;5.75;100.00
19777;BME280;10047;42.490;26.012;2024-02-28T02:26:06;143894.22;;;5.81;100.00
19777;BME280;10047;42.490;26.012;2024-02-28T02:28:32;143720.72;;;5.21;100.00
19777;BME280;10047;42.490;26.012;2024-02-28T02:30:58;143823.78;;;5.53;100.00
19777;BME280;10047;42.490;26.012;2024-02-28T02:33:23;143751.09;;;5.53;100.00
19777;BME280;10047;42.490;26.012;2024-02-28T02:35:49;143720.63;;;5.22;100.00
19777;BME280;10047;42.490;26.012;2024-02-28T02:38:14;143740.72;;;5.64;100.00
19777;BME280;10047;42.490;26.012;2024-02-28T02:40:40;143586.19;;;4.86;100.00
19777;BME280;10047;42.490;26.012;2024-02-28T02:43:05;143880.25;;;5.81;100.00
19777;BME280;10047;42.490;26.012;2024-02-28T02:45:30;143859.22;;;5.46;100.00
19777;BME280;10047;42.490;26.012;2024-02-28T02:47:56;143713.66;;;4.86;100.00
19777;BME280;10047;42.490;26.012;2024-02-28T02:50:21;143775.63;;;5.11;100.00
19777;BME280;10047;42.490;26.012;2024-02-28T02:52:47;143726.34;;;5.17;100.00
19777;BME280;10047;42.490;26.012;2024-02-28T02:55:12;143779.63;;;4.79;100.00
19777;BME280;10047;42.490;26.012;2024-02-28T02:57:39;143886.75;;;5.60;100.00
19777;BME280;10047;42.490;26.012;2024-02-28T03:00:08;143874.53;;;5.46;100.00
19777;BME280;10047;42.490;26.012;2024-02-28T03:02:34;143900.88;;;5.49;100.00
19777;BME280;10047;42.490;26.012;2024-02-28T03:05:00;143836.28;;;5.95;100.00
19777;BME280;10047;42.490;26.012;2024-02-28T03:07:25;143809.16;;;5.78;100.00
19777;BME280;10047;42.490;26.012;2024-02-28T03:09:50;143804.03;;;5.98;100.00
19777;BME280;10047;42.490;26.012;2024-02-28T03:12:16;143671.00;;;5.80;100.00
19777;BME280;10047;42.490;26.012;2024-02-28T03:14:42;143694.09;;;5.79;100.00
19777;BME280;10047;42.490;26.012;2024-02-28T03:17:07;143655.00;;;5.26;100.00
19777;BME280;10047;42.490;26.012;2024-02-28T03:19:32;143796.72;;;5.85;100.00
19777;BME280;10047;42.490;26.012;2024-02-28T03:21:59;143689.91;;;5.03;100.00
19777;BME280;10047;42.490;26.012;2024-02-28T03:24:24;143807.97;;;5.57;100.00
19777;BME280;10047;42.490;26.012;2024-02-28T03:26:50;143584.88;;;5.16;100.00
19777;BME280;10047;42.490;26.012;2024-02-28T03:29:15;143576.81;;;5.29;100.00
19777;BME280;10047;42.490;26.012;2024-02-28T03:31:40;143748.75;;;5.91;100.00
19777;BME280;10047;42.490;26.012;2024-02-28T03:34:06;143636.63;;;5.31;100.00
19777;BME280;10047;42.490;26.012;2024-02-28T03:36:31;143619.78;;;5.22;100.00
19777;BME280;10047;42.490;26.012;2024-02-28T03:38:58;143707.88;;;5.91;100.00
19777;BME280;10047;42.490;26.012;2024-02-28T03:41:23;143609.19;;;5.25;100.00
19777;BME280;10047;42.490;26.012;2024-02-28T03:43:48;143559.47;;;5.15;100.00
19777;BME280;10047;42.490;26.012;2024-02-28T03:46:14;143716.50;;;5.84;100.00
19777;BME280;10047;42.490;26.012;2024-02-28T03:48:40;143567.59;;;5.02;100.00
19777;BME280;10047;42.490;26.012;2024-02-28T03:51:05;143684.09;;;6.06;100.00
19777;BME280;10047;42.490;26.012;2024-02-28T03:53:31;143518.28;;;5.18;100.00
19777;BME280;10047;42.490;26.012;2024-02-28T03:55:57;143669.44;;;5.92;100.00
19777;BME280;10047;42.490;26.012;2024-02-28T03:58:24;143658.66;;;5.86;100.00
19777;BME280;10047;42.490;26.012;2024-02-28T04:00:49;143689.34;;;5.27;100.00
19777;BME280;10047;42.490;26.012;2024-02-28T04:03:14;143568.75;;;5.13;100.00
19777;BME280;10047;42.490;26.012;2024-02-28T04:05:40;143581.75;;;5.69;100.00
19777;BME280;10047;42.490;26.012;2024-02-28T04:08:06;143453.03;;;5.29;100.00
19777;BME280;10047;42.490;26.012;2024-02-28T04:10:32;143669.31;;;5.54;100.00
19777;BME280;10047;42.490;26.012;2024-02-28T04:12:57;143461.38;;;5.34;100.00
19777;BME280;10047;42.490;26.012;2024-02-28T04:15:22;143495.88;;;4.85;100.00
19777;BME280;10047;42.490;26.012;2024-02-28T04:17:51;143466.00;;;4.99;100.00
19777;BME280;10047;42.490;26.012;2024-02-28T04:20:16;143342.75;;;4.67;100.00
19777;BME280;10047;42.490;26.012;2024-02-28T04:22:42;143480.34;;;4.96;100.00
19777;BME280;10047;42.490;26.012;2024-02-28T04:25:08;143594.59;;;5.40;100.00
19777;BME280;10047;42.490;26.012;2024-02-28T04:27:37;143516.41;;;4.93;100.00
19777;BME280;10047;42.490;26.012;2024-02-28T04:30:04;143590.72;;;5.40;100.00
19777;BME280;10047;42.490;26.012;2024-02-28T04:32:29;143516.06;;;4.96;100.00
19777;BME280;10047;42.490;26.012;2024-02-28T04:34:55;143506.56;;;4.51;100.00
19777;BME280;10047;42.490;26.012;2024-02-28T04:37:21;143539.38;;;4.44;100.00
19777;BME280;10047;42.490;26.012;2024-02-28T04:39:46;143585.94;;;4.88;100.00
19777;BME280;10047;42.490;26.012;2024-02-28T04:42:12;143541.03;;;4.51;100.00
19777;BME280;10047;42.490;26.012;2024-02-28T04:44:38;143638.91;;;5.03;100.00
19777;BME280;10047;42.490;26.012;2024-02-28T04:47:03;143546.97;;;4.23;100.00
19777;BME280;10047;42.490;26.012;2024-02-28T04:49:30;143496.84;;;3.96;100.00
19777;BME280;10047;42.490;26.012;2024-02-28T04:51:55;143713.72;;;4.45;100.00
19777;BME280;10047;42.490;26.012;2024-02-28T04:54:21;143705.16;;;4.52;100.00
19777;BME280;10047;42.490;26.012;2024-02-28T04:56:46;143733.00;;;4.22;100.00
19777;BME280;10047;42.490;26.012;2024-02-28T04:59:12;143683.91;;;3.76;100.00
19777;BME280;10047;42.490;26.012;2024-02-28T05:01:38;143695.34;;;4.08;100.00
19777;BME280;10047;42.490;26.012;2024-02-28T05:04:08;143556.06;;;3.49;100.00
19777;BME280;10047;42.490;26.012;2024-02-28T05:06:35;143452.00;;;2.94;100.00
19777;BME280;10047;42.490;26.012;2024-02-28T05:09:00;143676.38;;;4.06;100.00
19777;BME280;10047;42.490;26.012;2024-02-28T05:11:26;143580.75;;;3.87;100.00
19777;BME280;10047;42.490;26.012;2024-02-28T05:13:51;143509.78;;;3.64;100.00
19777;BME280;10047;42.490;26.012;2024-02-28T05:16:17;143621.91;;;4.25;100.00
19777;BME280;10047;42.490;26.012;2024-02-28T05:18:44;143565.63;;;3.86;100.00
19777;BME280;10047;42.490;26.012;2024-02-28T05:21:10;143632.78;;;4.40;100.00
19777;BME280;10047;42.490;26.012;2024-02-28T05:23:36;143644.69;;;4.26;100.00
19777;BME280;10047;42.490;26.012;2024-02-28T05:26:02;143621.72;;;4.47;100.00
19777;BME280;10047;42.490;26.012;2024-02-28T05:28:38;143547.31;;;3.90;100.00
19777;BME280;10047;42.490;26.012;2024-02-28T05:31:24;143660.41;;;4.74;100.00
19777;BME280;10047;42.490;26.012;2024-02-28T05:33:56;143670.00;;;4.79;100.00
19777;BME280;10047;42.490;26.012;2024-02-28T05:36:23;143582.56;;;4.65;100.00
19777;BME280;10047;42.490;26.012;2024-02-28T05:38:49;143433.94;;;4.61;100.00
19777;BME280;10047;42.490;26.012;2024-02-28T05:41:16;143184.22;;;7.24;100.00
19777;BME280;10047;42.490;26.012;2024-02-28T05:43:41;143379.06;;;7.04;100.00
19777;BME280;10047;42.490;26.012;2024-02-28T05:46:07;143446.63;;;6.15;100.00
19777;BME280;10047;42.490;26.012;2024-02-28T05:48:32;143447.56;;;6.63;100.00
19777;BME280;10047;42.490;26.012;2024-02-28T05:50:59;143351.03;;;5.86;100.00
19777;BME280;10047;42.490;26.012;2024-02-28T05:53:32;143344.47;;;6.78;100.00
19777;BME280;10047;42.490;26.012;2024-02-28T05:56:01;143337.72;;;7.16;100.00
19777;BME280;10047;42.490;26.012;2024-02-28T05:58:27;143450.72;;;6.04;100.00
19777;BME280;10047;42.490;26.012;2024-02-28T06:00:52;143401.72;;;6.89;100.00
19777;BME280;10047;42.490;26.012;2024-02-28T06:03:18;143435.75;;;6.56;100.00
19777;BME280;10047;42.490;26.012;2024-02-28T06:05:43;143263.22;;;5.93;100.00
19777;BME280;10047;42.490;26.012;2024-02-28T06:08:09;143280.63;;;6.68;100.00
19777;BME280;10047;42.490;26.012;2024-02-28T06:10:34;143494.97;;;7.08;100.00
19777;BME280;10047;42.490;26.012;2024-02-28T06:12:59;143364.69;;;6.88;100.00
19777;BME280;10047;42.490;26.012;2024-02-28T06:15:25;143393.28;;;7.12;100.00
19777;BME280;10047;42.490;26.012;2024-02-28T06:17:51;143169.75;;;6.57;100.00
19777;BME280;10047;42.490;26.012;2024-02-28T06:20:16;143475.13;;;7.74;100.00
19777;BME280;10047;42.490;26.012;2024-02-28T06:22:42;143221.97;;;7.03;100.00
19777;BME280;10047;42.490;26.012;2024-02-28T06:25:07;143232.53;;;7.77;100.00
19777;BME280;10047;42.490;26.012;2024-02-28T06:27:39;143478.34;;;8.55;100.00
19777;BME280;10047;42.490;26.012;2024-02-28T06:30:06;143510.97;;;8.43;100.00
19777;BME280;10047;42.490;26.012;2024-02-28T06:32:32;143494.06;;;8.53;100.00
19777;BME280;10047;42.490;26.012;2024-02-28T06:34:57;143609.88;;;8.42;100.00
19777;BME280;10047;42.490;26.012;2024-02-28T06:37:23;143453.16;;;8.01;100.00
19777;BME280;10047;42.490;26.012;2024-02-28T06:39:48;143678.13;;;8.57;100.00
19777;BME280;10047;42.490;26.012;2024-02-28T06:42:14;143654.06;;;9.06;100.00
19777;BME280;10047;42.490;26.012;2024-02-28T06:44:39;143685.06;;;8.88;100.00
19777;BME280;10047;42.490;26.012;2024-02-28T06:47:04;143841.22;;;8.56;100.00
19777;BME280;10047;42.490;26.012;2024-02-28T06:49:30;143637.19;;;8.99;100.00
19777;BME280;10047;42.490;26.012;2024-02-28T06:51:55;143958.78;;;8.32;100.00
19777;BME280;10047;42.490;26.012;2024-02-28T06:54:24;143864.31;;;9.17;100.00
19777;BME280;10047;42.490;26.012;2024-02-28T06:56:49;143906.28;;;9.45;100.00
19777;BME280;10047;42.490;26.012;2024-02-28T06:59:15;144104.06;;;8.93;100.00
19777;BME280;10047;42.490;26.012;2024-02-28T07:01:40;144098.47;;;8.96;100.00
19777;BME280;10047;42.490;26.012;2024-02-28T07:04:05;143832.31;;;10.41;100.00
19777;BME280;10047;42.490;26.012;2024-02-28T07:06:32;143923.59;;;9.92;100.00
19777;BME280;10047;42.490;26.012;2024-02-28T07:08:58;144030.22;;;11.00;100.00
19777;BME280;10047;42.490;26.012;2024-02-28T07:11:33;144310.88;;;11.17;100.00
19777;BME280;10047;42.490;26.012;2024-02-28T07:13:59;144381.72;;;10.32;100.00
19777;BME280;10047;42.490;26.012;2024-02-28T07:16:28;144642.81;;;10.51;100.00
19777;BME280;10047;42.490;26.012;2024-02-28T07:18:53;144624.44;;;10.00;100.00
19777;BME280;10047;42.490;26.012;2024-02-28T07:21:18;144557.06;;;9.58;100.00
19777;BME280;10047;42.490;26.012;2024-02-28T07:23:44;144780.50;;;11.22;100.00
19777;BME280;10047;42.490;26.012;2024-02-28T07:26:15;144901.31;;;10.97;100.00
19777;BME280;10047;42.490;26.012;2024-02-28T07:28:40;145093.28;;;11.43;100.00
19777;BME280;10047;42.490;26.012;2024-02-28T07:31:06;145321.16;;;10.98;100.00
19777;BME280;10047;42.490;26.012;2024-02-28T07:33:31;145293.97;;;10.62;100.00
19777;BME280;10047;42.490;26.012;2024-02-28T07:35:56;145508.00;;;10.69;100.00
19777;BME280;10047;42.490;26.012;2024-02-28T07:38:27;145533.91;;;10.48;100.00
19777;BME280;10047;42.490;26.012;2024-02-28T07:40:53;145750.69;;;10.44;100.00
19777;BME280;10047;42.490;26.012;2024-02-28T07:43:18;145754.28;;;11.26;100.00
19777;BME280;10047;42.490;26.012;2024-02-28T07:45:44;145814.00;;;11.32;100.00
19777;BME280;10047;42.490;26.012;2024-02-28T07:48:09;145956.34;;;11.28;100.00
19777;BME280;10047;42.490;26.012;2024-02-28T07:50:35;146001.44;;;11.18;100.00
19777;BME280;10047;42.490;26.012;2024-02-28T07:53:00;146173.34;;;11.35;100.00
19777;BME280;10047;42.490;26.012;2024-02-28T07:55:25;146263.69;;;11.76;100.00
19777;BME280;10047;42.490;26.012;2024-02-28T07:57:52;146410.88;;;11.44;100.00
19777;BME280;10047;42.490;26.012;2024-02-28T08:00:18;146399.44;;;10.23;100.00
19777;BME280;10047;42.490;26.012;2024-02-28T08:02:44;146540.13;;;11.09;100.00
19777;BME280;10047;42.490;26.012;2024-02-28T08:05:10;146650.50;;;12.20;100.00
19777;BME280;10047;42.490;26.012;2024-02-28T08:07:36;146692.94;;;11.80;100.00
19777;BME280;10047;42.490;26.012;2024-02-28T08:10:02;146823.00;;;11.49;100.00
19777;BME280;10047;42.490;26.012;2024-02-28T08:12:30;147045.56;;;11.99;100.00
19777;BME280;10047;42.490;26.012;2024-02-28T08:14:56;147085.34;;;12.12;100.00
19777;BME280;10047;42.490;26.012;2024-02-28T08:17:21;147241.66;;;12.24;100.00
19777;BME280;10047;42.490;26.012;2024-02-28T08:19:46;147106.22;;;11.19;100.00
19777;BME280;10047;42.490;26.012;2024-02-28T08:22:13;147473.94;;;12.60;100.00
19777;BME280;10047;42.490;26.012;2024-02-28T08:24:38;147573.91;;;12.33;100.00
19777;BME280;10047;42.490;26.012;2024-02-28T08:27:04;147651.13;;;12.36;100.00
19777;BME280;10047;42.490;26.012;2024-02-28T08:29:30;147651.59;;;12.43;100.00
19777;BME280;10047;42.490;26.012;2024-02-28T08:31:57;147832.16;;;12.09;100.00
19777;BME280;10047;42.490;26.012;2024-02-28T08:34:23;147988.63;;;12.95;100.00
19777;BME280;10047;42.490;26.012;2024-02-28T08:36:49;148081.31;;;13.12;100.00
19777;BME280;10047;42.490;26.012;2024-02-28T08:39:14;147909.84;;;11.69;100.00
19777;BME280;10047;42.490;26.012;2024-02-28T08:41:40;148056.09;;;12.17;100.00
19777;BME280;10047;42.490;26.012;2024-02-28T08:44:06;148381.09;;;13.53;100.00
19777;BME280;10047;42.490;26.012;2024-02-28T08:46:31;148212.09;;;11.94;100.00
19777;BME280;10047;42.490;26.012;2024-02-28T08:48:57;148247.84;;;12.51;100.00
19777;BME280;10047;42.490;26.012;2024-02-28T08:51:22;148316.19;;;12.79;100.00
19777;BME280;10047;42.490;26.012;2024-02-28T08:53:47;148407.56;;;13.10;100.00
19777;BME280;10047;42.490;26.012;2024-02-28T08:56:13;148408.66;;;12.98;100.00
19777;BME280;10047;42.490;26.012;2024-02-28T08:58:38;148530.06;;;13.65;100.00
19777;BME280;10047;42.490;26.012;2024-02-28T09:01:04;148288.16;;;12.49;100.00
19777;BME280;10047;42.490;26.012;2024-02-28T09:03:29;148451.72;;;13.34;100.00
19777;BME280;10047;42.490;26.012;2024-02-28T09:05:55;148571.25;;;13.93;100.00
19777;BME280;10047;42.490;26.012;2024-02-28T09:08:20;148477.38;;;13.74;100.00
19777;BME280;10047;42.490;26.012;2024-02-28T09:10:45;148407.28;;;13.75;100.00
19777;BME280;10047;42.490;26.012;2024-02-28T09:13:12;148319.22;;;13.75;100.00
19777;BME280;10047;42.490;26.012;2024-02-28T09:15:38;148455.81;;;14.67;100.00
19777;BME280;10047;42.490;26.012;2024-02-28T09:18:03;148240.91;;;14.29;100.00
19777;BME280;10047;42.490;26.012;2024-02-28T09:20:29;148336.78;;;14.88;100.00
19777;BME280;10047;42.490;26.012;2024-02-28T09:22:54;148102.16;;;14.41;100.00
19777;BME280;10047;42.490;26.012;2024-02-28T09:25:20;148005.56;;;14.35;100.00
19777;BME280;10047;42.490;26.012;2024-02-28T09:27:47;147879.13;;;14.07;100.00
19777;BME280;10047;42.490;26.012;2024-02-28T09:30:12;147735.34;;;13.96;100.00
19777;BME280;10047;42.490;26.012;2024-02-28T09:32:38;147926.59;;;15.11;100.00
19777;BME280;10047;42.490;26.012;2024-02-28T09:35:04;147483.78;;;14.09;100.00
19777;BME280;10047;42.490;26.012;2024-02-28T09:37:30;147770.44;;;15.45;100.00
19777;BME280;10047;42.490;26.012;2024-02-28T09:39:57;147698.06;;;15.73;100.00
19777;BME280;10047;42.490;26.012;2024-02-28T09:42:22;147243.66;;;14.53;100.00
19777;BME280;10047;42.490;26.012;2024-02-28T09:44:48;147101.38;;;14.70;100.00
19777;BME280;10047;42.490;26.012;2024-02-28T09:47:14;147052.84;;;15.32;100.00
19777;BME280;10047;42.490;26.012;2024-02-28T09:49:42;146783.25;;;15.11;100.00
19777;BME280;10047;42.490;26.012;2024-02-28T09:52:07;146554.22;;;15.25;100.00
19777;BME280;10047;42.490;26.012;2024-02-28T09:54:33;146302.56;;;15.15;100.00
19777;BME280;10047;42.490;26.012;2024-02-28T09:56:59;145804.88;;;14.53;100.00
19777;BME280;10047;42.490;26.012;2024-02-28T09:59:25;145708.69;;;14.89;100.00
19777;BME280;10047;42.490;26.012;2024-02-28T10:01:57;145578.03;;;15.03;100.00
19777;BME280;10047;42.490;26.012;2024-02-28T10:04:26;145554.38;;;15.37;100.00
19777;BME280;10047;42.490;26.012;2024-02-28T10:06:56;145047.94;;;15.17;100.00
19777;BME280;10047;42.490;26.012;2024-02-28T10:09:21;144758.44;;;15.48;100.00
19777;BME280;10047;42.490;26.012;2024-02-28T10:11:47;144980.69;;;16.51;100.00
19777;BME280;10047;42.490;26.012;2024-02-28T10:14:17;144748.38;;;16.63;100.00
19777;BME280;10047;42.490;26.012;2024-02-28T10:16:42;144320.53;;;16.57;100.00
19777;BME280;10047;42.490;26.012;2024-02-28T10:19:08;143561.16;;;16.26;100.00
19777;BME280;10047;42.490;26.012;2024-02-28T10:21:33;143239.59;;;16.75;100.00
19777;BME280;10047;42.490;26.012;2024-02-28T10:23:59;142441.38;;;16.16;100.00
19777;BME280;10047;42.490;26.012;2024-02-28T10:26:25;142763.50;;;17.30;100.00
19777;BME280;10047;42.490;26.012;2024-02-28T10:28:51;141673.44;;;16.82;100.00
19777;BME280;10047;42.490;26.012;2024-02-28T10:31:16;141175.28;;;16.79;100.00
19777;BME280;10047;42.490;26.012;2024-02-28T10:33:42;140428.72;;;17.28;100.00
19777;BME280;10047;42.490;26.012;2024-02-28T10:36:07;140301.59;;;17.38;100.00
19777;BME280;10047;42.490;26.012;2024-02-28T10:38:34;139253.03;;;17.03;100.00
19777;BME280;10047;42.490;26.012;2024-02-28T10:41:00;139103.72;;;17.55;100.00
19777;BME280;10047;42.490;26.012;2024-02-28T10:43:28;136905.50;;;15.81;100.00
19777;BME280;10047;42.490;26.012;2024-02-28T10:45:57;137386.78;;;16.57;100.00
19777;BME280;10047;42.490;26.012;2024-02-28T10:48:24;136486.25;;;15.76;100.00
19777;BME280;10047;42.490;26.012;2024-02-28T10:50:50;136301.19;;;15.96;100.00
19777;BME280;10047;42.490;26.012;2024-02-28T10:53:20;136649.53;;;15.84;100.00
19777;BME280;10047;42.490;26.012;2024-02-28T10:55:48;136660.63;;;16.48;100.00
19777;BME280;10047;42.490;26.012;2024-02-28T10:58:14;136408.38;;;16.34;100.00
19777;BME280;10047;42.490;26.012;2024-02-28T11:00:42;137177.97;;;17.46;100.00
19777;BME280;10047;42.490;26.012;2024-02-28T11:03:12;140038.09;;;17.85;100.00
19777;BME280;10047;42.490;26.012;2024-02-28T11:05:40;139497.41;;;17.98;100.00
19777;BME280;10047;42.490;26.012;2024-02-28T11:08:09;138578.22;;;17.87;100.00
19777;BME280;10047;42.490;26.012;2024-02-28T11:10:40;137111.69;;;17.67;100.00
19777;BME280;10047;42.490;26.012;2024-02-28T11:13:06;136136.13;;;18.13;100.00
19777;BME280;10047;42.490;26.012;2024-02-28T11:15:33;134722.69;;;18.11;100.00
19777;BME280;10047;42.490;26.012;2024-02-28T11:18:09;132033.19;;;18.81;100.00
19777;BME280;10047;42.490;26.012;2024-02-28T11:20:35;130509.09;;;18.44;100.00
19777;BME280;10047;42.490;26.012;2024-02-28T11:23:01;127854.09;;;17.91;100.00
19777;BME280;10047;42.490;26.012;2024-02-28T11:25:26;126951.91;;;17.53;100.00
19777;BME280;10047;42.490;26.012;2024-02-28T11:27:52;126438.34;;;18.21;100.00
19777;BME280;10047;42.490;26.012;2024-02-28T11:30:17;124278.31;;;16.95;100.00
19777;BME280;10047;42.490;26.012;2024-02-28T11:32:43;124114.97;;;18.27;100.00
19777;BME280;10047;42.490;26.012;2024-02-28T11:35:09;123759.00;;;18.51;100.00
19777;BME280;10047;42.490;26.012;2024-02-28T11:37:38;121900.41;;;18.44;100.00
19777;BME280;10047;42.490;26.012;2024-02-28T11:40:07;119861.78;;;18.14;100.00
19777;BME280;10047;42.490;26.012;2024-02-28T11:42:34;119283.38;;;17.75;100.00
19777;BME280;10047;42.490;26.012;2024-02-28T11:44:59;119169.81;;;18.13;100.00
19777;BME280;10047;42.490;26.012;2024-02-28T11:47:25;118261.22;;;17.83;100.00
19777;BME280;10047;42.490;26.012;2024-02-28T11:49:51;116061.91;;;16.27;100.00
19777;BME280;10047;42.490;26.012;2024-02-28T11:52:16;116343.25;;;17.71;100.00
19777;BME280;10047;42.490;26.012;2024-02-28T11:54:42;116439.56;;;17.66;100.00
19777;BME280;10047;42.490;26.012;2024-02-28T11:57:07;116259.44;;;18.32;100.00
19777;BME280;10047;42.490;26.012;2024-02-28T11:59:33;116171.06;;;18.94;100.00
19777;BME280;10047;42.490;26.012;2024-02-28T12:01:58;115151.47;;;18.86;100.00
19777;BME280;10047;42.490;26.012;2024-02-28T12:04:24;114364.31;;;18.38;100.00
19777;BME280;10047;42.490;26.012;2024-02-28T12:06:53;112535.47;;;18.20;100.00
19777;BME280;10047;42.490;26.012;2024-02-28T12:09:18;112052.44;;;19.10;100.00
19777;BME280;10047;42.490;26.012;2024-02-28T12:11:44;111717.09;;;18.89;100.00
19777;BME280;10047;42.490;26.012;2024-02-28T12:14:10;110955.28;;;19.87;100.00
19777;BME280;10047;42.490;26.012;2024-02-28T12:16:38;109662.50;;;18.90;100.00
19777;BME280;10047;42.490;26.012;2024-02-28T12:19:08;108696.91;;;18.76;100.00
19777;BME280;10047;42.490;26.012;2024-02-28T12:21:33;108392.38;;;17.35;100.00
19777;BME280;10047;42.490;26.012;2024-02-28T12:23:59;108617.84;;;18.78;100.00
19777;BME280;10047;42.490;26.012;2024-02-28T12:26:26;108249.72;;;17.89;100.00
19777;BME280;10047;42.490;26.012;2024-02-28T12:28:52;108254.28;;;18.86;100.00